sensor_id;sensor_type;location;lat;lon;timestamp;pressure;altitude;pressure_sealevel;temperature;humidity
45071;BME280;30836;48.906;9.140;2023-05-20T00:00:27;987.55;;;20.66;41.85
45071;BME280;30836;48.906;9.140;2023-05-20T00:01:27;987.57;;;20.57;42.00
45071;BME280;30836;48.906;9.140;2023-05-20T00:02:27;987.57;;;20.51;42.21
45071;BME280;30836;48.906;9.140;2023-05-20T00:03:28;987.55;;;20.46;42.31
45071;BME280;30836;48.906;9.140;2023-05-20T00:04:28;987.55;;;20.41;42.53
45071;BME280;30836;48.906;9.140;2023-05-20T00:05:29;987.57;;;20.36;42.61
45071;BME280;30836;48.906;9.140;2023-05-20T00:06:29;987.55;;;20.32;42.70
45071;BME280;30836;48.906;9.140;2023-05-20T00:07:30;987.57;;;20.29;42.75
45071;BME280;30836;48.906;9.140;2023-05-20T00:08:30;987.57;;;20.26;42.86
45071;BME280;30836;48.906;9.140;2023-05-20T00:09:31;987.58;;;20.21;43.06
45071;BME280;30836;48.906;9.140;2023-05-20T00:10:31;987.55;;;20.16;43.16
45071;BME280;30836;48.906;9.140;2023-05-20T00:11:32;987.55;;;20.11;43.35
45071;BME280;30836;48.906;9.140;2023-05-20T00:12:32;987.58;;;20.08;43.33
45071;BME280;30836;48.906;9.140;2023-05-20T00:13:33;987.55;;;20.04;43.55
45071;BME280;30836;48.906;9.140;2023-05-20T00:14:33;987.55;;;20.01;43.52
45071;BME280;30836;48.906;9.140;2023-05-20T00:15:34;987.55;;;19.98;43.62
45071;BME280;30836;48.906;9.140;2023-05-20T00:16:34;987.57;;;19.94;43.63
45071;BME280;30836;48.906;9.140;2023-05-20T00:17:35;987.55;;;19.92;43.62
45071;BME280;30836;48.906;9.140;2023-05-20T00:18:35;987.51;;;19.91;43.76
45071;BME280;30836;48.906;9.140;2023-05-20T00:19:35;987.51;;;19.89;43.71
45071;BME280;30836;48.906;9.140;2023-05-20T00:20:36;987.53;;;19.86;43.86
45071;BME280;30836;48.906;9.140;2023-05-20T00:21:36;987.51;;;19.84;43.91
45071;BME280;30836;48.906;9.140;2023-05-20T00:22:37;987.51;;;19.81;44.07
45071;BME280;30836;48.906;9.140;2023-05-20T00:23:37;987.47;;;19.79;44.13
45071;BME280;30836;48.906;9.140;2023-05-20T00:24:37;987.49;;;19.78;43.98
45071;BME280;30836;48.906;9.140;2023-05-20T00:25:38;987.45;;;19.80;43.97
45071;BME280;30836;48.906;9.140;2023-05-20T00:26:38;987.47;;;19.80;44.04
45071;BME280;30836;48.906;9.140;2023-05-20T00:27:39;987.47;;;19.79;44.18
45071;BME280;30836;48.906;9.140;2023-05-20T00:28:40;987.45;;;19.79;44.09
45071;BME280;30836;48.906;9.140;2023-05-20T00:29:40;987.47;;;19.89;43.69
45071;BME280;30836;48.906;9.140;2023-05-20T00:30:41;987.47;;;20.04;43.37
45071;BME280;30836;48.906;9.140;2023-05-20T00:31:41;987.47;;;20.17;43.14
45071;BME280;30836;48.906;9.140;2023-05-20T00:32:42;987.47;;;20.28;42.90
45071;BME280;30836;48.906;9.140;2023-05-20T00:33:42;987.47;;;20.42;42.54
45071;BME280;30836;48.906;9.140;2023-05-20T00:34:43;987.43;;;20.55;42.34
45071;BME280;30836;48.906;9.140;2023-05-20T00:35:43;987.47;;;20.67;42.13
45071;BME280;30836;48.906;9.140;2023-05-20T00:36:43;987.45;;;20.77;42.01
45071;BME280;30836;48.906;9.140;2023-05-20T00:37:44;987.47;;;20.87;41.72
45071;BME280;30836;48.906;9.140;2023-05-20T00:38:44;987.47;;;20.94;41.63
45071;BME280;30836;48.906;9.140;2023-05-20T00:39:45;987.49;;;20.99;41.49
45071;BME280;30836;48.906;9.140;2023-05-20T00:40:45;987.51;;;21.02;41.49
45071;BME280;30836;48.906;9.140;2023-05-20T00:41:45;987.51;;;21.04;41.53
45071;BME280;30836;48.906;9.140;2023-05-20T00:42:46;987.51;;;21.07;41.41
45071;BME280;30836;48.906;9.140;2023-05-20T00:43:46;987.53;;;21.10;41.30
45071;BME280;30836;48.906;9.140;2023-05-20T00:44:47;987.53;;;21.13;41.24
45071;BME280;30836;48.906;9.140;2023-05-20T00:45:47;987.51;;;21.14;41.18
45071;BME280;30836;48.906;9.140;2023-05-20T00:46:48;987.53;;;21.15;41.29
45071;BME280;30836;48.906;9.140;2023-05-20T00:47:49;987.55;;;21.15;41.25
45071;BME280;30836;48.906;9.140;2023-05-20T00:48:49;987.53;;;21.11;41.35
45071;BME280;30836;48.906;9.140;2023-05-20T00:49:50;987.53;;;20.99;41.76
45071;BME280;30836;48.906;9.140;2023-05-20T00:50:51;987.53;;;20.85;42.13
45071;BME280;30836;48.906;9.140;2023-05-20T00:51:51;987.51;;;20.72;42.35
45071;BME280;30836;48.906;9.140;2023-05-20T00:52:52;987.49;;;20.62;42.50
45071;BME280;30836;48.906;9.140;2023-05-20T00:53:52;987.47;;;20.55;42.58
45071;BME280;30836;48.906;9.140;2023-05-20T00:54:53;987.47;;;20.50;42.67
45071;BME280;30836;48.906;9.140;2023-05-20T00:55:54;987.41;;;20.47;42.73
45071;BME280;30836;48.906;9.140;2023-05-20T00:56:55;987.43;;;20.45;42.81
45071;BME280;30836;48.906;9.140;2023-05-20T00:57:56;987.41;;;20.44;42.83
45071;BME280;30836;48.906;9.140;2023-05-20T00:58:56;987.41;;;20.44;42.81
45071;BME280;30836;48.906;9.140;2023-05-20T00:59:57;987.41;;;20.43;42.88
45071;BME280;30836;48.906;9.140;2023-05-20T01:00:57;987.41;;;20.41;42.94
45071;BME280;30836;48.906;9.140;2023-05-20T01:01:58;987.43;;;20.37;43.17
45071;BME280;30836;48.906;9.140;2023-05-20T01:02:59;987.41;;;20.33;43.15
45071;BME280;30836;48.906;9.140;2023-05-20T01:03:59;987.43;;;20.29;43.18
45071;BME280;30836;48.906;9.140;2023-05-20T01:05:00;987.41;;;20.28;43.17
45071;BME280;30836;48.906;9.140;2023-05-20T01:06:01;987.41;;;20.26;43.31
45071;BME280;30836;48.906;9.140;2023-05-20T01:07:02;987.41;;;20.24;43.50
45071;BME280;30836;48.906;9.140;2023-05-20T01:08:04;987.41;;;20.24;43.43
45071;BME280;30836;48.906;9.140;2023-05-20T01:09:05;987.39;;;20.25;43.35
45071;BME280;30836;48.906;9.140;2023-05-20T01:10:05;987.39;;;20.25;43.35
45071;BME280;30836;48.906;9.140;2023-05-20T01:11:07;987.39;;;20.24;43.40
45071;BME280;30836;48.906;9.140;2023-05-20T01:12:12;987.37;;;20.25;43.31
45071;BME280;30836;48.906;9.140;2023-05-20T01:13:19;987.37;;;20.34;42.95
45071;BME280;30836;48.906;9.140;2023-05-20T01:14:22;987.35;;;20.45;42.75
45071;BME280;30836;48.906;9.140;2023-05-20T01:15:26;987.33;;;20.56;42.53
45071;BME280;30836;48.906;9.140;2023-05-20T01:16:26;987.35;;;20.70;42.22
45071;BME280;30836;48.906;9.140;2023-05-20T01:17:30;987.31;;;20.81;42.07
45071;BME280;30836;48.906;9.140;2023-05-20T01:18:31;987.31;;;20.85;42.17
45071;BME280;30836;48.906;9.140;2023-05-20T01:19:37;987.35;;;20.79;42.49
45071;BME280;30836;48.906;9.140;2023-05-20T01:20:40;987.29;;;20.69;42.57
45071;BME280;30836;48.906;9.140;2023-05-20T01:21:40;987.27;;;20.61;42.83
45071;BME280;30836;48.906;9.140;2023-05-20T01:23:53;987.31;;;20.47;43.07
45071;BME280;30836;48.906;9.140;2023-05-20T01:24:54;987.31;;;20.40;43.14
45071;BME280;30836;48.906;9.140;2023-05-20T01:25:55;987.31;;;20.37;43.21
45071;BME280;30836;48.906;9.140;2023-05-20T01:26:55;987.31;;;20.41;42.79
45071;BME280;30836;48.906;9.140;2023-05-20T01:27:56;987.31;;;20.51;42.62
45071;BME280;30836;48.906;9.140;2023-05-20T01:28:56;987.35;;;20.64;42.40
45071;BME280;30836;48.906;9.140;2023-05-20T01:29:57;987.35;;;20.76;42.26
45071;BME280;30836;48.906;9.140;2023-05-20T01:30:58;987.35;;;20.86;42.17
45071;BME280;30836;48.906;9.140;2023-05-20T01:32:01;987.37;;;20.90;41.96
45071;BME280;30836;48.906;9.140;2023-05-20T01:33:08;987.35;;;20.84;42.36
45071;BME280;30836;48.906;9.140;2023-05-20T01:34:10;987.37;;;20.71;42.85
45071;BME280;30836;48.906;9.140;2023-05-20T01:35:12;987.35;;;20.61;42.67
45071;BME280;30836;48.906;9.140;2023-05-20T01:36:13;987.35;;;20.61;42.53
45071;BME280;30836;48.906;9.140;2023-05-20T01:37:14;987.35;;;20.62;42.56
45071;BME280;30836;48.906;9.140;2023-05-20T01:38:16;987.31;;;20.62;42.62
45071;BME280;30836;48.906;9.140;2023-05-20T01:39:18;987.33;;;20.54;43.09
45071;BME280;30836;48.906;9.140;2023-05-20T01:40:19;987.31;;;20.40;43.32
45071;BME280;30836;48.906;9.140;2023-05-20T01:41:20;987.29;;;20.33;43.25
45071;BME280;30836;48.906;9.140;2023-05-20T01:42:25;987.19;;;20.30;43.53
45071;BME280;30836;48.906;9.140;2023-05-20T01:43:26;987.19;;;20.22;43.63
45071;BME280;30836;48.906;9.140;2023-05-20T01:44:28;987.15;;;20.18;43.51
45071;BME280;30836;48.906;9.140;2023-05-20T01:45:29;987.15;;;20.13;43.98
45071;BME280;30836;48.906;9.140;2023-05-20T01:46:33;987.15;;;20.03;44.15
45071;BME280;30836;48.906;9.140;2023-05-20T01:47:33;987.11;;;19.88;44.68
45071;BME280;30836;48.906;9.140;2023-05-20T01:48:33;987.13;;;19.67;45.20
45071;BME280;30836;48.906;9.140;2023-05-20T01:49:34;987.13;;;19.50;45.38
45071;BME280;30836;48.906;9.140;2023-05-20T01:50:34;987.11;;;19.40;45.45
45071;BME280;30836;48.906;9.140;2023-05-20T01:51:35;987.15;;;19.34;45.40
45071;BME280;30836;48.906;9.140;2023-05-20T01:52:35;987.15;;;19.29;45.64
45071;BME280;30836;48.906;9.140;2023-05-20T01:53:36;987.13;;;19.24;45.80
45071;BME280;30836;48.906;9.140;2023-05-20T01:54:36;987.13;;;19.29;45.44
45071;BME280;30836;48.906;9.140;2023-05-20T01:55:36;987.17;;;19.42;45.05
45071;BME280;30836;48.906;9.140;2023-05-20T01:56:37;987.17;;;19.50;44.85
45071;BME280;30836;48.906;9.140;2023-05-20T01:57:37;987.17;;;19.55;45.04
45071;BME280;30836;48.906;9.140;2023-05-20T01:58:38;987.17;;;19.57;44.90
45071;BME280;30836;48.906;9.140;2023-05-20T01:59:38;987.27;;;19.62;44.87
45071;BME280;30836;48.906;9.140;2023-05-20T02:00:38;987.27;;;19.65;44.82
45071;BME280;30836;48.906;9.140;2023-05-20T02:01:39;987.27;;;19.59;45.36
45071;BME280;30836;48.906;9.140;2023-05-20T02:02:39;987.27;;;19.50;45.39
45071;BME280;30836;48.906;9.140;2023-05-20T02:03:40;987.27;;;19.50;45.32
45071;BME280;30836;48.906;9.140;2023-05-20T02:04:41;987.27;;;19.48;45.57
45071;BME280;30836;48.906;9.140;2023-05-20T02:05:43;987.27;;;19.42;45.45
45071;BME280;30836;48.906;9.140;2023-05-20T02:06:44;987.19;;;19.43;45.53
45071;BME280;30836;48.906;9.140;2023-05-20T02:07:44;987.19;;;19.49;45.24
45071;BME280;30836;48.906;9.140;2023-05-20T02:08:45;987.19;;;19.53;45.38
45071;BME280;30836;48.906;9.140;2023-05-20T02:09:45;987.15;;;19.50;45.50
45071;BME280;30836;48.906;9.140;2023-05-20T02:10:47;987.15;;;19.49;45.40
45071;BME280;30836;48.906;9.140;2023-05-20T02:11:47;987.15;;;19.49;45.56
45071;BME280;30836;48.906;9.140;2023-05-20T02:12:48;987.17;;;19.46;45.90
45071;BME280;30836;48.906;9.140;2023-05-20T02:13:48;987.17;;;19.40;45.61
45071;BME280;30836;48.906;9.140;2023-05-20T02:14:49;987.15;;;19.32;46.34
45071;BME280;30836;48.906;9.140;2023-05-20T02:15:50;987.13;;;19.27;45.98
45071;BME280;30836;48.906;9.140;2023-05-20T02:16:50;987.13;;;19.33;45.80
45071;BME280;30836;48.906;9.140;2023-05-20T02:17:50;987.13;;;19.35;46.05
45071;BME280;30836;48.906;9.140;2023-05-20T02:18:51;987.11;;;19.38;45.66
45071;BME280;30836;48.906;9.140;2023-05-20T02:19:51;987.11;;;19.48;45.50
45071;BME280;30836;48.906;9.140;2023-05-20T02:20:52;987.11;;;19.58;45.25
45071;BME280;30836;48.906;9.140;2023-05-20T02:21:52;987.09;;;19.68;45.02
45071;BME280;30836;48.906;9.140;2023-05-20T02:22:53;987.05;;;19.74;44.99
45071;BME280;30836;48.906;9.140;2023-05-20T02:23:53;987.05;;;19.72;45.18
45071;BME280;30836;48.906;9.140;2023-05-20T02:24:53;987.03;;;19.59;46.01
45071;BME280;30836;48.906;9.140;2023-05-20T02:25:54;987.03;;;19.46;45.95
45071;BME280;30836;48.906;9.140;2023-05-20T02:26:54;987.03;;;19.44;45.75
45071;BME280;30836;48.906;9.140;2023-05-20T02:27:55;987.03;;;19.50;45.54
45071;BME280;30836;48.906;9.140;2023-05-20T02:28:55;987.03;;;19.60;45.26
45071;BME280;30836;48.906;9.140;2023-05-20T02:29:56;987.03;;;19.75;44.79
45071;BME280;30836;48.906;9.140;2023-05-20T02:30:56;987.05;;;19.88;44.66
45071;BME280;30836;48.906;9.140;2023-05-20T02:31:57;987.05;;;19.98;44.41
45071;BME280;30836;48.906;9.140;2023-05-20T02:32:57;987.07;;;20.06;44.49
45071;BME280;30836;48.906;9.140;2023-05-20T02:33:58;987.07;;;20.10;44.35
45071;BME280;30836;48.906;9.140;2023-05-20T02:34:58;987.05;;;20.18;44.08
45071;BME280;30836;48.906;9.140;2023-05-20T02:35:58;987.05;;;20.28;43.88
45071;BME280;30836;48.906;9.140;2023-05-20T02:36:59;987.05;;;20.38;43.63
45071;BME280;30836;48.906;9.140;2023-05-20T02:37:59;987.05;;;20.47;43.58
45071;BME280;30836;48.906;9.140;2023-05-20T02:39:00;987.05;;;20.53;43.36
45071;BME280;30836;48.906;9.140;2023-05-20T02:40:00;987.07;;;20.56;43.43
45071;BME280;30836;48.906;9.140;2023-05-20T02:41:01;987.07;;;20.56;43.40
45071;BME280;30836;48.906;9.140;2023-05-20T02:42:01;987.09;;;20.57;43.30
45071;BME280;30836;48.906;9.140;2023-05-20T02:43:02;987.09;;;20.63;43.11
45071;BME280;30836;48.906;9.140;2023-05-20T02:44:02;987.07;;;20.70;43.01
45071;BME280;30836;48.906;9.140;2023-05-20T02:45:03;987.05;;;20.77;42.88
45071;BME280;30836;48.906;9.140;2023-05-20T02:46:04;987.07;;;20.86;42.68
45071;BME280;30836;48.906;9.140;2023-05-20T02:47:04;987.03;;;20.94;42.46
45071;BME280;30836;48.906;9.140;2023-05-20T02:48:04;987.03;;;21.01;42.35
45071;BME280;30836;48.906;9.140;2023-05-20T02:49:05;987.01;;;21.06;42.17
45071;BME280;30836;48.906;9.140;2023-05-20T02:50:05;986.99;;;21.10;42.24
45071;BME280;30836;48.906;9.140;2023-05-20T02:51:06;987.01;;;21.13;42.15
45071;BME280;30836;48.906;9.140;2023-05-20T02:52:07;987.03;;;21.15;42.16
45071;BME280;30836;48.906;9.140;2023-05-20T02:53:07;986.99;;;21.15;42.13
45071;BME280;30836;48.906;9.140;2023-05-20T02:54:07;986.99;;;21.16;42.16
45071;BME280;30836;48.906;9.140;2023-05-20T02:55:08;986.99;;;21.19;42.08
45071;BME280;30836;48.906;9.140;2023-05-20T02:56:08;986.99;;;21.22;41.97
45071;BME280;30836;48.906;9.140;2023-05-20T02:57:09;986.95;;;21.26;41.93
45071;BME280;30836;48.906;9.140;2023-05-20T02:58:09;987.01;;;21.28;41.89
45071;BME280;30836;48.906;9.140;2023-05-20T02:59:10;987.01;;;21.30;41.87
45071;BME280;30836;48.906;9.140;2023-05-20T03:00:10;987.01;;;21.32;41.87
45071;BME280;30836;48.906;9.140;2023-05-20T03:01:11;987.01;;;21.34;41.81
45071;BME280;30836;48.906;9.140;2023-05-20T03:02:11;987.01;;;21.37;41.73
45071;BME280;30836;48.906;9.140;2023-05-20T03:03:12;986.99;;;21.37;41.71
45071;BME280;30836;48.906;9.140;2023-05-20T03:04:12;986.99;;;21.37;41.75
45071;BME280;30836;48.906;9.140;2023-05-20T03:05:13;986.97;;;21.38;41.81
45071;BME280;30836;48.906;9.140;2023-05-20T03:06:13;986.97;;;21.38;41.80
45071;BME280;30836;48.906;9.140;2023-05-20T03:07:14;986.97;;;21.40;41.78
45071;BME280;30836;48.906;9.140;2023-05-20T03:08:14;987.01;;;21.41;41.82
45071;BME280;30836;48.906;9.140;2023-05-20T03:09:14;987.03;;;21.42;41.75
45071;BME280;30836;48.906;9.140;2023-05-20T03:10:15;987.01;;;21.37;42.11
45071;BME280;30836;48.906;9.140;2023-05-20T03:11:15;986.99;;;21.29;42.25
45071;BME280;30836;48.906;9.140;2023-05-20T03:12:16;986.97;;;21.26;42.09
45071;BME280;30836;48.906;9.140;2023-05-20T03:13:16;987.01;;;21.28;42.03
45071;BME280;30836;48.906;9.140;2023-05-20T03:14:16;987.01;;;21.29;42.09
45071;BME280;30836;48.906;9.140;2023-05-20T03:15:17;987.01;;;21.28;42.01
45071;BME280;30836;48.906;9.140;2023-05-20T03:16:17;987.03;;;21.29;42.02
45071;BME280;30836;48.906;9.140;2023-05-20T03:17:18;987.03;;;21.30;42.07
45071;BME280;30836;48.906;9.140;2023-05-20T03:18:18;987.03;;;21.32;42.07
45071;BME280;30836;48.906;9.140;2023-05-20T03:19:19;987.05;;;21.33;42.03
45071;BME280;30836;48.906;9.140;2023-05-20T03:20:19;987.05;;;21.34;42.00
45071;BME280;30836;48.906;9.140;2023-05-20T03:21:20;987.05;;;21.36;41.95
45071;BME280;30836;48.906;9.140;2023-05-20T03:22:20;987.03;;;21.38;41.86
45071;BME280;30836;48.906;9.140;2023-05-20T03:23:21;987.05;;;21.39;41.92
45071;BME280;30836;48.906;9.140;2023-05-20T03:24:21;987.03;;;21.40;41.93
45071;BME280;30836;48.906;9.140;2023-05-20T03:25:21;987.07;;;21.42;41.95
45071;BME280;30836;48.906;9.140;2023-05-20T03:26:23;987.05;;;21.45;41.90
45071;BME280;30836;48.906;9.140;2023-05-20T03:27:23;987.05;;;21.48;41.83
45071;BME280;30836;48.906;9.140;2023-05-20T03:28:24;987.05;;;21.50;41.79
45071;BME280;30836;48.906;9.140;2023-05-20T03:29:25;987.03;;;21.51;41.76
45071;BME280;30836;48.906;9.140;2023-05-20T03:30:25;987.01;;;21.52;41.76
45071;BME280;30836;48.906;9.140;2023-05-20T03:31:26;987.01;;;21.52;41.74
45071;BME280;30836;48.906;9.140;2023-05-20T03:32:27;987.01;;;21.50;41.83
45071;BME280;30836;48.906;9.140;2023-05-20T03:33:28;987.01;;;21.42;42.19
45071;BME280;30836;48.906;9.140;2023-05-20T03:34:29;986.97;;;21.27;42.63
45071;BME280;30836;48.906;9.140;2023-05-20T03:35:29;986.95;;;21.11;42.96
45071;BME280;30836;48.906;9.140;2023-05-20T03:36:30;986.99;;;20.98;43.28
45071;BME280;30836;48.906;9.140;2023-05-20T03:37:31;986.99;;;20.86;43.47
45071;BME280;30836;48.906;9.140;2023-05-20T03:38:31;986.97;;;20.75;43.67
45071;BME280;30836;48.906;9.140;2023-05-20T03:39:32;987.01;;;20.67;43.78
45071;BME280;30836;48.906;9.140;2023-05-20T03:40:32;987.01;;;20.60;43.88
45071;BME280;30836;48.906;9.140;2023-05-20T03:41:32;987.01;;;20.54;44.00
45071;BME280;30836;48.906;9.140;2023-05-20T03:42:33;987.01;;;20.49;44.12
45071;BME280;30836;48.906;9.140;2023-05-20T03:43:33;987.01;;;20.45;44.22
45071;BME280;30836;48.906;9.140;2023-05-20T03:44:34;987.01;;;20.43;44.22
45071;BME280;30836;48.906;9.140;2023-05-20T03:45:34;987.01;;;20.41;44.23
45071;BME280;30836;48.906;9.140;2023-05-20T03:46:35;987.01;;;20.40;44.37
45071;BME280;30836;48.906;9.140;2023-05-20T03:47:35;987.05;;;20.38;44.27
45071;BME280;30836;48.906;9.140;2023-05-20T03:48:35;987.03;;;20.34;44.42
45071;BME280;30836;48.906;9.140;2023-05-20T03:49:36;987.07;;;20.29;44.54
45071;BME280;30836;48.906;9.140;2023-05-20T03:50:36;987.11;;;20.26;44.70
45071;BME280;30836;48.906;9.140;2023-05-20T03:51:37;987.11;;;20.23;44.74
45071;BME280;30836;48.906;9.140;2023-05-20T03:52:37;987.13;;;20.19;44.85
45071;BME280;30836;48.906;9.140;2023-05-20T03:53:38;987.15;;;20.18;44.96
45071;BME280;30836;48.906;9.140;2023-05-20T03:54:38;987.11;;;20.17;45.04
45071;BME280;30836;48.906;9.140;2023-05-20T03:55:38;987.11;;;20.16;45.10
45071;BME280;30836;48.906;9.140;2023-05-20T03:56:39;987.15;;;20.15;45.07
45071;BME280;30836;48.906;9.140;2023-05-20T03:57:39;987.15;;;20.14;45.08
45071;BME280;30836;48.906;9.140;2023-05-20T03:58:41;987.13;;;20.10;45.14
45071;BME280;30836;48.906;9.140;2023-05-20T03:59:42;987.15;;;20.06;45.19
45071;BME280;30836;48.906;9.140;2023-05-20T04:00:42;987.11;;;20.04;45.22
45071;BME280;30836;48.906;9.140;2023-05-20T04:01:42;987.13;;;20.03;45.21
45071;BME280;30836;48.906;9.140;2023-05-20T04:02:43;987.13;;;20.03;45.22
45071;BME280;30836;48.906;9.140;2023-05-20T04:03:43;987.17;;;20.04;45.18
45071;BME280;30836;48.906;9.140;2023-05-20T04:04:44;987.17;;;20.06;45.09
45071;BME280;30836;48.906;9.140;2023-05-20T04:05:44;987.15;;;20.06;45.13
45071;BME280;30836;48.906;9.140;2023-05-20T04:06:45;987.13;;;20.06;45.19
45071;BME280;30836;48.906;9.140;2023-05-20T04:07:45;987.13;;;20.06;45.16
45071;BME280;30836;48.906;9.140;2023-05-20T04:08:45;987.15;;;20.07;45.15
45071;BME280;30836;48.906;9.140;2023-05-20T04:09:46;987.11;;;20.09;45.16
45071;BME280;30836;48.906;9.140;2023-05-20T04:10:46;987.13;;;20.10;45.19
45071;BME280;30836;48.906;9.140;2023-05-20T04:11:47;987.09;;;20.10;45.16
45071;BME280;30836;48.906;9.140;2023-05-20T04:12:48;987.09;;;20.11;45.14
45071;BME280;30836;48.906;9.140;2023-05-20T04:13:48;987.07;;;20.13;45.07
45071;BME280;30836;48.906;9.140;2023-05-20T04:14:49;987.07;;;20.14;44.98
45071;BME280;30836;48.906;9.140;2023-05-20T04:15:50;987.07;;;20.15;44.93
45071;BME280;30836;48.906;9.140;2023-05-20T04:16:51;987.07;;;20.15;44.92
45071;BME280;30836;48.906;9.140;2023-05-20T04:17:51;987.07;;;20.13;45.10
45071;BME280;30836;48.906;9.140;2023-05-20T04:18:52;987.07;;;20.11;45.12
45071;BME280;30836;48.906;9.140;2023-05-20T04:19:52;987.07;;;20.10;45.20
45071;BME280;30836;48.906;9.140;2023-05-20T04:20:53;987.07;;;20.09;45.15
45071;BME280;30836;48.906;9.140;2023-05-20T04:21:54;987.07;;;20.08;45.16
45071;BME280;30836;48.906;9.140;2023-05-20T04:22:55;987.07;;;20.08;45.15
45071;BME280;30836;48.906;9.140;2023-05-20T04:23:56;987.07;;;20.07;45.27
45071;BME280;30836;48.906;9.140;2023-05-20T04:24:56;987.05;;;20.04;45.36
45071;BME280;30836;48.906;9.140;2023-05-20T04:25:57;987.05;;;20.02;45.37
45071;BME280;30836;48.906;9.140;2023-05-20T04:26:57;987.05;;;20.02;45.35
45071;BME280;30836;48.906;9.140;2023-05-20T04:27:58;987.05;;;20.02;45.35
45071;BME280;30836;48.906;9.140;2023-05-20T04:29:00;987.05;;;20.01;45.36
45071;BME280;30836;48.906;9.140;2023-05-20T04:30:02;987.07;;;20.04;45.22
45071;BME280;30836;48.906;9.140;2023-05-20T04:31:03;987.07;;;20.13;44.84
45071;BME280;30836;48.906;9.140;2023-05-20T04:32:04;987.07;;;20.27;44.54
45071;BME280;30836;48.906;9.140;2023-05-20T04:33:04;987.05;;;20.42;44.25
45071;BME280;30836;48.906;9.140;2023-05-20T04:34:05;987.03;;;20.54;44.20
45071;BME280;30836;48.906;9.140;2023-05-20T04:35:05;987.01;;;20.57;44.36
45071;BME280;30836;48.906;9.140;2023-05-20T04:36:06;987.01;;;20.54;44.42
45071;BME280;30836;48.906;9.140;2023-05-20T04:37:08;986.99;;;20.50;44.53
45071;BME280;30836;48.906;9.140;2023-05-20T04:38:09;986.95;;;20.46;44.58
45071;BME280;30836;48.906;9.140;2023-05-20T04:39:09;986.95;;;20.42;44.61
45071;BME280;30836;48.906;9.140;2023-05-20T04:40:10;986.95;;;20.39;44.66
45071;BME280;30836;48.906;9.140;2023-05-20T04:41:11;986.95;;;20.37;44.71
45071;BME280;30836;48.906;9.140;2023-05-20T04:42:11;986.93;;;20.35;44.73
45071;BME280;30836;48.906;9.140;2023-05-20T04:43:12;986.91;;;20.32;44.84
45071;BME280;30836;48.906;9.140;2023-05-20T04:44:12;986.93;;;20.30;44.94
45071;BME280;30836;48.906;9.140;2023-05-20T04:45:13;986.93;;;20.28;45.00
45071;BME280;30836;48.906;9.140;2023-05-20T04:46:13;986.91;;;20.26;45.03
45071;BME280;30836;48.906;9.140;2023-05-20T04:47:14;986.91;;;20.25;45.02
45071;BME280;30836;48.906;9.140;2023-05-20T04:48:14;986.91;;;20.23;45.12
45071;BME280;30836;48.906;9.140;2023-05-20T04:49:15;986.89;;;20.22;45.07
45071;BME280;30836;48.906;9.140;2023-05-20T04:50:15;986.89;;;20.21;45.09
45071;BME280;30836;48.906;9.140;2023-05-20T04:51:16;986.87;;;20.20;45.13
45071;BME280;30836;48.906;9.140;2023-05-20T04:52:16;986.85;;;20.20;45.18
45071;BME280;30836;48.906;9.140;2023-05-20T04:53:20;986.85;;;20.20;45.22
45071;BME280;30836;48.906;9.140;2023-05-20T04:54:20;986.85;;;20.21;45.28
45071;BME280;30836;48.906;9.140;2023-05-20T04:55:21;986.84;;;20.23;45.25
45071;BME280;30836;48.906;9.140;2023-05-20T04:56:21;986.84;;;20.23;45.18
45071;BME280;30836;48.906;9.140;2023-05-20T04:57:22;986.82;;;20.23;45.20
45071;BME280;30836;48.906;9.140;2023-05-20T04:58:22;986.82;;;20.23;45.22
45071;BME280;30836;48.906;9.140;2023-05-20T04:59:23;986.85;;;20.23;45.19
45071;BME280;30836;48.906;9.140;2023-05-20T05:00:24;986.87;;;20.23;45.16
45071;BME280;30836;48.906;9.140;2023-05-20T05:01:24;986.91;;;20.22;45.18
45071;BME280;30836;48.906;9.140;2023-05-20T05:02:25;986.93;;;20.20;45.19
45071;BME280;30836;48.906;9.140;2023-05-20T05:03:25;986.95;;;20.19;45.22
45071;BME280;30836;48.906;9.140;2023-05-20T05:04:26;986.97;;;20.18;45.24
45071;BME280;30836;48.906;9.140;2023-05-20T05:05:26;986.95;;;20.19;45.30
45071;BME280;30836;48.906;9.140;2023-05-20T05:06:27;986.95;;;20.20;45.28
45071;BME280;30836;48.906;9.140;2023-05-20T05:07:27;986.95;;;20.21;45.27
45071;BME280;30836;48.906;9.140;2023-05-20T05:08:28;986.93;;;20.23;45.25
45071;BME280;30836;48.906;9.140;2023-05-20T05:09:28;986.89;;;20.24;45.27
45071;BME280;30836;48.906;9.140;2023-05-20T05:10:28;986.89;;;20.25;45.20
45071;BME280;30836;48.906;9.140;2023-05-20T05:11:29;986.85;;;20.27;45.25
45071;BME280;30836;48.906;9.140;2023-05-20T05:12:30;986.85;;;20.28;45.25
45071;BME280;30836;48.906;9.140;2023-05-20T05:13:30;986.82;;;20.29;45.24
45071;BME280;30836;48.906;9.140;2023-05-20T05:14:31;986.84;;;20.30;45.21
45071;BME280;30836;48.906;9.140;2023-05-20T05:15:31;986.85;;;20.32;45.31
45071;BME280;30836;48.906;9.140;2023-05-20T05:16:31;986.85;;;20.33;45.28
45071;BME280;30836;48.906;9.140;2023-05-20T05:17:32;986.84;;;20.35;45.20
45071;BME280;30836;48.906;9.140;2023-05-20T05:18:33;986.84;;;20.36;45.23
45071;BME280;30836;48.906;9.140;2023-05-20T05:19:34;986.84;;;20.38;45.25
45071;BME280;30836;48.906;9.140;2023-05-20T05:20:34;986.84;;;20.40;45.20
45071;BME280;30836;48.906;9.140;2023-05-20T05:21:35;986.85;;;20.44;45.23
45071;BME280;30836;48.906;9.140;2023-05-20T05:22:35;986.87;;;20.48;45.16
45071;BME280;30836;48.906;9.140;2023-05-20T05:23:35;986.84;;;20.53;45.15
45071;BME280;30836;48.906;9.140;2023-05-20T05:24:36;986.87;;;20.58;45.19
45071;BME280;30836;48.906;9.140;2023-05-20T05:25:37;986.87;;;20.63;45.10
45071;BME280;30836;48.906;9.140;2023-05-20T05:26:38;986.87;;;20.68;44.96
45071;BME280;30836;48.906;9.140;2023-05-20T05:27:38;986.87;;;20.73;44.91
45071;BME280;30836;48.906;9.140;2023-05-20T05:28:40;986.84;;;20.77;44.90
45071;BME280;30836;48.906;9.140;2023-05-20T05:29:41;986.82;;;20.82;44.78
45071;BME280;30836;48.906;9.140;2023-05-20T05:30:41;986.82;;;20.87;44.74
45071;BME280;30836;48.906;9.140;2023-05-20T05:31:42;986.78;;;20.92;44.73